createdAt,value
2023-05-11T00:00:49.128Z,11.20
2023-05-11T00:03:15.953Z,11.20
2023-05-11T00:05:42.690Z,11.20
2023-05-11T00:08:09.409Z,10.80
2023-05-11T00:10:36.173Z,11.20
2023-05-11T00:13:02.802Z,11.10
2023-05-11T00:15:29.582Z,11.10
2023-05-11T00:17:56.464Z,11.10
2023-05-11T00:20:23.820Z,11.00
2023-05-11T00:22:50.438Z,11.00
2023-05-11T00:25:17.041Z,11.00
2023-05-11T00:27:45.916Z,11.00
2023-05-11T00:30:14.696Z,11.10
2023-05-11T00:32:42.563Z,11.10
2023-05-11T00:35:11.138Z,11.10
2023-05-11T00:37:41.500Z,11.30
2023-05-11T00:40:08.586Z,11.30
2023-05-11T00:42:35.612Z,11.30
2023-05-11T00:45:02.554Z,11.30
2023-05-11T00:47:29.329Z,11.30
2023-05-11T00:49:56.033Z,11.20
2023-05-11T00:52:22.832Z,11.30
2023-05-11T00:54:49.705Z,11.30
2023-05-11T00:57:16.754Z,11.30
2023-05-11T00:59:43.439Z,11.20
2023-05-11T01:02:10.615Z,11.50
2023-05-11T01:04:37.661Z,11.30
2023-05-11T01:07:19.166Z,11.30
2023-05-11T01:10:03.913Z,11.30
2023-05-11T01:12:58.752Z,11.30
2023-05-11T01:15:52.365Z,11.30
2023-05-11T01:18:43.718Z,11.30
2023-05-11T01:21:11.862Z,11.30
2023-05-11T01:24:12.888Z,11.30
2023-05-11T01:26:55.483Z,11.60
2023-05-11T01:29:46.613Z,11.30
2023-05-11T01:32:20.594Z,11.30
2023-05-11T01:34:48.865Z,11.30
2023-05-11T01:37:19.717Z,11.30
2023-05-11T01:39:52.794Z,11.30
2023-05-11T01:42:24.132Z,11.30
2023-05-11T01:44:52.916Z,11.30
2023-05-11T01:47:23.756Z,11.30
2023-05-11T01:49:52.267Z,11.10
2023-05-11T01:52:22.966Z,11.30
2023-05-11T01:54:51.148Z,11.40
2023-05-11T01:57:18.298Z,11.30
2023-05-11T01:59:47.348Z,11.30
2023-05-11T02:02:15.011Z,11.30
2023-05-11T02:04:43.789Z,11.30
2023-05-11T02:07:12.453Z,11.30
2023-05-11T02:09:40.492Z,11.40
2023-05-11T02:12:09.349Z,11.40
2023-05-11T02:14:37.823Z,11.30
2023-05-11T02:17:06.302Z,11.40
2023-05-11T02:19:37.583Z,11.30
2023-05-11T02:22:05.755Z,11.30
2023-05-11T02:24:33.857Z,11.30
2023-05-11T02:27:00.647Z,11.30
2023-05-11T02:29:27.911Z,11.30
2023-05-11T02:32:01.126Z,11.30
2023-05-11T02:34:39.018Z,11.60
2023-05-11T02:37:10.001Z,11.30
2023-05-11T02:39:38.153Z,11.60
2023-05-11T02:42:23.334Z,11.30
2023-05-11T02:45:02.617Z,11.20
2023-05-11T02:47:35.478Z,11.20
2023-05-11T02:50:04.240Z,11.30
2023-05-11T02:52:33.023Z,11.20
2023-05-11T02:55:02.387Z,11.20
2023-05-11T02:57:29.337Z,11.20
2023-05-11T02:59:56.000Z,11.50
2023-05-11T03:02:22.879Z,11.20
2023-05-11T03:04:49.601Z,11.50
2023-05-11T03:07:16.270Z,11.20
2023-05-11T03:09:43.526Z,11.20
2023-05-11T03:12:11.168Z,11.20
2023-05-11T03:14:38.878Z,11.20
2023-05-11T03:17:06.948Z,11.20
2023-05-11T03:19:34.037Z,11.20
2023-05-11T03:22:00.978Z,11.20
2023-05-11T03:24:28.142Z,11.20
2023-05-11T03:26:56.624Z,11.20
2023-05-11T03:29:25.563Z,11.00
2023-05-11T03:31:52.401Z,11.60
2023-05-11T03:34:18.990Z,11.60
2023-05-11T03:36:49.033Z,10.90
2023-05-11T03:39:17.375Z,11.10
2023-05-11T03:41:49.384Z,11.10
2023-05-11T03:44:20.688Z,11.10
2023-05-11T03:46:50.375Z,11.10
2023-05-11T03:49:18.497Z,11.10
2023-05-11T03:51:46.130Z,11.20
2023-05-11T03:54:13.037Z,11.10
2023-05-11T03:56:40.325Z,11.10
2023-05-11T03:59:08.196Z,11.10
2023-05-11T04:01:34.983Z,11.10
2023-05-11T04:04:01.725Z,11.00
2023-05-11T04:06:28.404Z,11.00
2023-05-11T04:08:54.978Z,11.00
2023-05-11T04:11:22.202Z,11.00
2023-05-11T04:13:48.835Z,10.90
2023-05-11T04:16:15.656Z,11.20
2023-05-11T04:18:42.295Z,11.10
2023-05-11T04:21:08.968Z,11.20
2023-05-11T04:23:35.552Z,10.70
2023-05-11T04:26:02.325Z,11.00
2023-05-11T04:28:29.423Z,11.40
2023-05-11T04:30:57.529Z,11.00
2023-05-11T04:33:24.472Z,11.00
2023-05-11T04:35:52.032Z,11.00
2023-05-11T04:38:19.624Z,11.30
2023-05-11T04:40:47.830Z,11.10
2023-05-11T04:43:15.045Z,11.10
2023-05-11T04:45:41.702Z,11.10
2023-05-11T04:48:08.563Z,11.10
2023-05-11T04:50:36.919Z,11.10
2023-05-11T04:53:03.522Z,11.20
2023-05-11T04:55:30.131Z,11.20
2023-05-11T04:57:56.740Z,11.20
2023-05-11T05:00:23.430Z,11.20
2023-05-11T05:02:51.117Z,11.20
2023-05-11T05:05:18.171Z,11.60
2023-05-11T05:07:45.267Z,11.30
2023-05-11T05:10:12.860Z,10.90
2023-05-11T05:12:39.838Z,11.30
2023-05-11T05:15:07.400Z,11.30
2023-05-11T05:17:33.996Z,11.30
2023-05-11T05:20:00.681Z,11.40
2023-05-11T05:22:27.290Z,11.40
2023-05-11T05:24:53.931Z,11.40
2023-05-11T05:27:20.522Z,11.40
2023-05-11T05:29:47.214Z,11.30
2023-05-11T05:32:13.880Z,11.50
2023-05-11T05:34:40.579Z,11.50
2023-05-11T05:37:07.135Z,11.60
2023-05-11T05:39:33.786Z,11.60
2023-05-11T05:42:00.456Z,11.60
2023-05-11T05:44:27.100Z,11.60
2023-05-11T05:46:53.774Z,11.70
2023-05-11T05:49:20.414Z,11.70
2023-05-11T05:51:47.173Z,11.80
2023-05-11T05:54:13.853Z,11.80
2023-05-11T05:56:40.891Z,11.90
2023-05-11T05:59:12.967Z,11.90
2023-05-11T06:01:45.499Z,11.90
2023-05-11T06:04:15.764Z,12.00
2023-05-11T06:06:42.486Z,12.00
2023-05-11T06:09:09.341Z,12.10
2023-05-11T06:11:36.254Z,12.10
2023-05-11T06:14:02.944Z,12.10
2023-05-11T06:16:30.253Z,12.10
2023-05-11T06:18:56.975Z,12.10
2023-05-11T06:21:25.093Z,12.20
2023-05-11T06:23:52.168Z,12.30
2023-05-11T06:26:18.851Z,12.20
2023-05-11T06:28:45.541Z,12.20
2023-05-11T06:31:12.688Z,12.20
2023-05-11T06:33:39.456Z,12.30
2023-05-11T06:36:07.168Z,12.30
2023-05-11T06:38:33.811Z,12.40
2023-05-11T06:41:00.469Z,12.40
2023-05-11T06:43:27.072Z,12.40
2023-05-11T06:45:53.705Z,12.40
2023-05-11T06:48:23.545Z,12.40
2023-05-11T06:50:50.212Z,12.30
2023-05-11T06:53:17.786Z,12.30
2023-05-11T06:55:44.558Z,12.30
2023-05-11T06:58:11.224Z,12.40
2023-05-11T07:00:38.231Z,12.40
2023-05-11T07:03:05.619Z,12.40
2023-05-11T07:05:32.591Z,12.20
2023-05-11T07:07:59.553Z,12.40
2023-05-11T07:10:26.432Z,12.50
2023-05-11T07:12:53.188Z,12.60
2023-05-11T07:15:19.843Z,12.60
2023-05-11T07:17:47.786Z,12.50
2023-05-11T07:20:14.811Z,12.50
2023-05-11T07:22:41.502Z,12.60
2023-05-11T07:25:09.726Z,12.60
2023-05-11T07:27:36.554Z,12.70
2023-05-11T07:30:04.351Z,12.70
2023-05-11T07:32:31.012Z,12.80
2023-05-11T07:34:57.843Z,12.90
2023-05-11T07:37:24.459Z,12.90
2023-05-11T07:39:51.057Z,12.90
2023-05-11T07:42:17.626Z,13.00
2023-05-11T07:44:44.702Z,13.00
2023-05-11T07:47:11.376Z,12.90
2023-05-11T07:49:43.578Z,13.00
2023-05-11T07:52:11.701Z,13.10
2023-05-11T07:54:40.027Z,13.30
2023-05-11T07:57:06.995Z,13.10
2023-05-11T07:59:33.719Z,13.20
2023-05-11T08:02:00.446Z,13.40
2023-05-11T08:04:27.983Z,13.30
2023-05-11T08:06:54.911Z,13.40
2023-05-11T08:09:22.498Z,13.40
2023-05-11T08:11:49.843Z,13.40
2023-05-11T08:14:17.165Z,13.30
2023-05-11T08:16:44.038Z,13.40
2023-05-11T08:19:11.660Z,13.40
2023-05-11T08:21:38.539Z,13.50
2023-05-11T08:24:05.524Z,13.20
2023-05-11T08:26:33.153Z,13.00
2023-05-11T08:28:59.857Z,13.00
2023-05-11T08:31:26.550Z,13.00
2023-05-11T08:33:53.451Z,13.10
2023-05-11T08:36:20.190Z,13.00
2023-05-11T08:38:46.994Z,13.00
2023-05-11T08:41:13.729Z,12.90
2023-05-11T08:43:40.967Z,13.40
2023-05-11T08:46:10.855Z,13.30
2023-05-11T08:48:37.866Z,13.50
2023-05-11T08:51:04.784Z,13.60
2023-05-11T08:53:31.521Z,13.50
2023-05-11T08:56:00.613Z,13.50
2023-05-11T08:58:28.137Z,13.50
2023-05-11T09:00:54.904Z,13.60
2023-05-11T09:05:49.621Z,13.90
2023-05-11T09:08:18.598Z,14.00
2023-05-11T09:10:45.306Z,14.10
2023-05-11T09:13:12.609Z,14.10
2023-05-11T09:15:39.490Z,14.10
2023-05-11T09:18:06.918Z,14.00
2023-05-11T09:20:34.882Z,14.10
2023-05-11T09:23:01.722Z,13.90
2023-05-11T09:25:33.539Z,14.00
2023-05-11T09:28:00.718Z,13.70
2023-05-11T09:30:27.657Z,13.70
2023-05-11T09:32:55.498Z,13.90
2023-05-11T09:35:26.492Z,14.10
2023-05-11T09:38:02.402Z,14.00
2023-05-11T09:40:34.328Z,14.10
2023-05-11T09:43:02.265Z,14.20
2023-05-11T09:45:40.344Z,14.30
2023-05-11T09:48:13.543Z,14.10
2023-05-11T09:50:40.250Z,14.30
2023-05-11T09:53:06.911Z,14.30
2023-05-11T09:55:33.567Z,13.90
2023-05-11T09:58:00.750Z,13.90
2023-05-11T10:00:27.444Z,13.80
2023-05-11T10:03:05.731Z,13.80
2023-05-11T10:05:34.335Z,13.90
2023-05-11T10:08:03.877Z,13.80
2023-05-11T10:10:34.584Z,13.90
2023-05-11T10:13:02.899Z,13.90
2023-05-11T10:15:32.218Z,14.10
2023-05-11T10:18:02.118Z,14.40
2023-05-11T10:20:28.741Z,14.40
2023-05-11T10:22:56.345Z,14.40
2023-05-11T10:25:25.092Z,14.30
2023-05-11T10:27:52.032Z,14.40
2023-05-11T10:30:19.058Z,14.30
2023-05-11T10:32:47.213Z,14.30
2023-05-11T10:35:13.992Z,14.50
2023-05-11T10:37:43.092Z,14.50
2023-05-11T10:40:11.290Z,14.50
2023-05-11T10:43:04.311Z,14.20
2023-05-11T10:45:52.069Z,14.20
2023-05-11T10:49:08.002Z,14.00
2023-05-11T10:52:00.597Z,14.00
2023-05-11T10:55:12.110Z,14.10
2023-05-11T10:57:54.462Z,14.30
2023-05-11T11:00:58.907Z,14.10
2023-05-11T11:03:25.636Z,14.30
2023-05-11T11:05:52.268Z,14.60
2023-05-11T11:08:18.967Z,14.50
2023-05-11T11:10:46.260Z,14.60
2023-05-11T11:13:14.833Z,14.40
2023-05-11T11:15:54.100Z,14.30
2023-05-11T11:18:29.220Z,14.40
2023-05-11T11:20:58.269Z,14.50
2023-05-11T11:23:42.946Z,13.90
2023-05-11T11:26:11.379Z,13.90
2023-05-11T11:29:01.911Z,14.20
2023-05-11T11:31:33.213Z,14.40
2023-05-11T11:34:28.878Z,14.10
2023-05-11T11:36:55.489Z,14.60
2023-05-11T11:39:25.285Z,14.70
2023-05-11T11:42:06.657Z,14.90
2023-05-11T11:44:34.936Z,15.30
2023-05-11T11:47:14.417Z,15.50
2023-05-11T11:49:46.353Z,15.30
2023-05-11T11:52:15.001Z,15.00
2023-05-11T11:54:44.278Z,15.40
2023-05-11T16:18:04.005Z,15.60
2023-05-11T16:20:31.681Z,15.50
2023-05-11T16:22:58.261Z,15.50
2023-05-11T16:25:24.882Z,15.30
2023-05-11T16:27:51.523Z,14.90
2023-05-11T16:30:25.088Z,14.70
2023-05-11T16:32:53.169Z,14.60
2023-05-11T16:35:20.366Z,14.60
2023-05-11T16:37:47.892Z,14.50
2023-05-11T16:40:15.173Z,14.50
2023-05-11T16:42:42.254Z,14.60
2023-05-11T16:45:09.307Z,14.60
2023-05-11T16:47:35.925Z,14.50
2023-05-11T16:50:02.981Z,14.60
2023-05-11T16:52:29.585Z,14.50
2023-05-11T16:54:58.982Z,14.30
2023-05-11T16:57:25.938Z,14.20
2023-05-11T16:59:52.688Z,14.00
2023-05-11T17:02:19.873Z,14.00
2023-05-11T17:04:46.887Z,13.90
2023-05-11T17:07:14.854Z,13.80
2023-05-11T17:09:41.779Z,13.90
2023-05-11T17:12:10.335Z,13.90
2023-05-11T17:14:37.065Z,14.00
2023-05-11T17:17:04.644Z,14.00
2023-05-11T17:19:31.561Z,13.90
2023-05-11T17:21:58.640Z,13.90
2023-05-11T17:24:25.398Z,13.80
2023-05-11T17:26:52.087Z,13.90
2023-05-11T17:29:18.701Z,13.90
2023-05-11T17:31:48.723Z,13.80
2023-05-11T17:34:15.762Z,13.80
2023-05-11T17:36:42.754Z,13.90
2023-05-11T17:39:10.133Z,13.90
2023-05-11T17:41:37.625Z,14.00
2023-05-11T17:44:05.131Z,13.70
2023-05-11T17:46:31.774Z,13.60
2023-05-11T17:48:58.524Z,13.50
2023-05-11T17:51:25.242Z,13.30
2023-05-11T17:53:51.994Z,13.30
2023-05-11T17:56:19.136Z,13.30
2023-05-11T17:58:45.872Z,13.20
2023-05-11T18:01:14.064Z,13.20
2023-05-11T18:03:41.469Z,13.20
2023-05-11T18:06:08.541Z,13.20
2023-05-11T18:08:36.600Z,13.10
2023-05-11T18:11:03.605Z,13.10
2023-05-11T18:13:31.316Z,13.00
2023-05-11T18:15:58.611Z,13.00
2023-05-11T18:18:25.826Z,13.00
2023-05-11T18:20:52.542Z,13.00
2023-05-11T18:23:19.097Z,12.90
2023-05-11T18:25:45.904Z,12.90
2023-05-11T18:28:12.540Z,12.80
2023-05-11T18:30:39.315Z,12.80
2023-05-11T18:33:05.949Z,12.80
2023-05-11T18:35:32.711Z,12.70
2023-05-11T18:37:59.679Z,12.70
2023-05-11T18:40:27.179Z,12.60
2023-05-11T18:42:53.922Z,12.50
2023-05-11T18:45:20.547Z,12.70
2023-05-11T18:47:47.341Z,12.40
2023-05-11T18:50:14.617Z,12.40
2023-05-11T18:52:41.261Z,12.40
2023-05-11T18:55:08.648Z,12.20
2023-05-11T18:57:35.800Z,12.30
2023-05-11T19:00:02.477Z,12.20
2023-05-11T19:02:29.741Z,12.00
2023-05-11T19:04:57.091Z,12.20
2023-05-11T19:09:51.749Z,12.20
2023-05-11T19:12:19.672Z,11.90
2023-05-11T19:14:47.506Z,12.80
2023-05-11T19:17:14.311Z,12.00
2023-05-11T19:19:40.966Z,12.00
2023-05-11T19:22:09.226Z,11.30
2023-05-11T19:24:36.138Z,11.90
2023-05-11T19:27:07.726Z,11.90
2023-05-11T19:29:35.369Z,11.60
2023-05-11T19:32:02.653Z,11.70
2023-05-11T19:34:29.414Z,11.90
2023-05-11T19:36:56.084Z,11.80
2023-05-11T19:41:51.264Z,11.80
2023-05-11T19:44:17.951Z,11.80
2023-05-11T19:46:46.954Z,11.70
2023-05-11T19:49:14.938Z,11.80
2023-05-11T19:51:41.817Z,11.60
2023-05-11T19:54:08.573Z,11.60
2023-05-11T19:56:35.241Z,11.60
2023-05-11T19:59:04.975Z,11.60
2023-05-11T20:01:31.957Z,11.50
2023-05-11T20:03:59.436Z,11.50
2023-05-11T20:06:26.292Z,11.50
2023-05-11T20:08:53.232Z,11.40
2023-05-11T20:11:20.151Z,11.40
2023-05-11T20:13:47.759Z,11.20
2023-05-11T20:16:14.577Z,11.30
2023-05-11T20:18:41.537Z,11.30
2023-05-11T20:48:39.959Z,10.90
2023-05-11T21:48:59.084Z,11.20
2023-05-11T21:51:25.764Z,11.10
2023-05-11T21:53:52.931Z,11.10
2023-05-11T21:56:19.605Z,11.10
2023-05-11T21:58:46.210Z,11.10
2023-05-11T22:01:12.890Z,11.10
2023-05-11T22:03:39.676Z,11.10
2023-05-11T22:06:06.639Z,11.10
2023-05-11T22:08:33.275Z,11.00
2023-05-11T22:10:59.887Z,11.00
2023-05-11T22:13:26.768Z,11.10
2023-05-11T22:15:53.444Z,11.10
2023-05-11T22:18:20.117Z,11.10
2023-05-11T22:20:46.908Z,11.10
2023-05-11T22:23:15.412Z,11.10
2023-05-11T22:25:42.477Z,11.10
2023-05-11T22:28:09.146Z,11.20
2023-05-11T22:30:37.426Z,11.20
2023-05-11T22:33:04.111Z,11.10
2023-05-11T22:35:30.993Z,11.10
2023-05-11T22:37:58.084Z,11.20
2023-05-11T22:40:24.696Z,11.20
2023-05-11T22:42:51.295Z,11.20
2023-05-11T22:45:17.860Z,11.20
2023-05-11T22:47:44.456Z,11.20
2023-05-11T22:50:12.098Z,11.20
2023-05-11T22:52:38.942Z,10.90
2023-05-11T22:55:06.204Z,11.00
2023-05-11T22:57:32.842Z,11.20
2023-05-11T22:59:59.533Z,11.10
2023-05-11T23:02:26.311Z,11.40
2023-05-11T23:04:53.511Z,11.10
